sensor_id;sensor_type;location;lat;lon;timestamp;P1;durP1;ratioP1;P2;durP2;ratioP2
29236;SDS011;16266;50.866;4.398;2024-01-16T00:01:43;1999.90;;;999.90;;
29236;SDS011;16266;50.866;4.398;2024-01-16T00:04:09;1999.90;;;999.90;;
29236;SDS011;16266;50.866;4.398;2024-01-16T00:06:42;1999.90;;;999.90;;
29236;SDS011;16266;50.866;4.398;2024-01-16T00:09:09;1999.90;;;999.90;;
29236;SDS011;16266;50.866;4.398;2024-01-16T00:11:41;1999.90;;;999.90;;
29236;SDS011;16266;50.866;4.398;2024-01-16T00:14:07;1999.90;;;999.90;;
29236;SDS011;16266;50.866;4.398;2024-01-16T00:16:41;1999.90;;;999.90;;
29236;SDS011;16266;50.866;4.398;2024-01-16T00:19:08;1999.90;;;999.90;;
29236;SDS011;16266;50.866;4.398;2024-01-16T00:21:38;1999.90;;;999.90;;
29236;SDS011;16266;50.866;4.398;2024-01-16T00:24:07;1999.90;;;999.90;;
29236;SDS011;16266;50.866;4.398;2024-01-16T00:26:33;1999.90;;;999.90;;
29236;SDS011;16266;50.866;4.398;2024-01-16T00:28:59;1999.90;;;999.90;;
29236;SDS011;16266;50.866;4.398;2024-01-16T00:31:26;1999.90;;;999.90;;
29236;SDS011;16266;50.866;4.398;2024-01-16T00:33:51;1999.90;;;999.90;;
29236;SDS011;16266;50.866;4.398;2024-01-16T00:36:17;1999.90;;;999.90;;
29236;SDS011;16266;50.866;4.398;2024-01-16T00:38:43;1999.90;;;999.90;;
29236;SDS011;16266;50.866;4.398;2024-01-16T00:41:08;1999.90;;;999.90;;
29236;SDS011;16266;50.866;4.398;2024-01-16T00:43:34;1999.90;;;999.90;;
29236;SDS011;16266;50.866;4.398;2024-01-16T00:46:00;1999.90;;;999.90;;
29236;SDS011;16266;50.866;4.398;2024-01-16T00:48:27;1999.90;;;999.90;;
29236;SDS011;16266;50.866;4.398;2024-01-16T00:50:54;1999.90;;;999.90;;
29236;SDS011;16266;50.866;4.398;2024-01-16T00:53:19;1999.90;;;999.90;;
29236;SDS011;16266;50.866;4.398;2024-01-16T00:55:45;1999.90;;;999.90;;
29236;SDS011;16266;50.866;4.398;2024-01-16T00:58:11;1999.90;;;999.90;;
29236;SDS011;16266;50.866;4.398;2024-01-16T01:00:37;1999.90;;;999.90;;
29236;SDS011;16266;50.866;4.398;2024-01-16T01:03:03;1999.90;;;999.90;;
29236;SDS011;16266;50.866;4.398;2024-01-16T01:05:29;1999.90;;;999.90;;
29236;SDS011;16266;50.866;4.398;2024-01-16T01:07:55;1999.90;;;999.90;;
29236;SDS011;16266;50.866;4.398;2024-01-16T01:10:21;1999.90;;;999.90;;
29236;SDS011;16266;50.866;4.398;2024-01-16T01:12:47;1999.90;;;999.90;;
29236;SDS011;16266;50.866;4.398;2024-01-16T01:15:14;1999.90;;;999.90;;
29236;SDS011;16266;50.866;4.398;2024-01-16T01:17:40;1999.90;;;999.90;;
29236;SDS011;16266;50.866;4.398;2024-01-16T01:20:07;1999.90;;;999.90;;
29236;SDS011;16266;50.866;4.398;2024-01-16T01:22:33;1509.85;;;759.45;;
29236;SDS011;16266;50.866;4.398;2024-01-16T01:24:59;1509.75;;;759.35;;
29236;SDS011;16266;50.866;4.398;2024-01-16T01:27:25;41.35;;;39.78;;
29236;SDS011;16266;50.866;4.398;2024-01-16T01:29:51;41.92;;;40.33;;
29236;SDS011;16266;50.866;4.398;2024-01-16T01:32:17;1511.22;;;760.78;;
29236;SDS011;16266;50.866;4.398;2024-01-16T01:34:42;1999.90;;;999.90;;
29236;SDS011;16266;50.866;4.398;2024-01-16T01:37:08;1999.90;;;999.90;;
29236;SDS011;16266;50.866;4.398;2024-01-16T01:39:35;1999.90;;;999.90;;
29236;SDS011;16266;50.866;4.398;2024-01-16T01:42:01;45.63;;;43.72;;
29236;SDS011;16266;50.866;4.398;2024-01-16T01:44:26;42.33;;;40.63;;
29236;SDS011;16266;50.866;4.398;2024-01-16T01:46:56;43.58;;;41.00;;
29236;SDS011;16266;50.866;4.398;2024-01-16T01:49:22;41.45;;;39.75;;
29236;SDS011;16266;50.866;4.398;2024-01-16T01:51:50;34.10;;;32.65;;
29236;SDS011;16266;50.866;4.398;2024-01-16T01:54:16;33.60;;;32.20;;
29236;SDS011;16266;50.866;4.398;2024-01-16T01:56:44;35.00;;;33.58;;
29236;SDS011;16266;50.866;4.398;2024-01-16T01:59:13;34.30;;;32.97;;
29236;SDS011;16266;50.866;4.398;2024-01-16T02:01:40;37.20;;;35.40;;
29236;SDS011;16266;50.866;4.398;2024-01-16T02:04:07;35.13;;;33.85;;
29236;SDS011;16266;50.866;4.398;2024-01-16T02:06:34;33.03;;;31.63;;
29236;SDS011;16266;50.866;4.398;2024-01-16T02:09:00;31.13;;;29.83;;
29236;SDS011;16266;50.866;4.398;2024-01-16T02:11:26;30.23;;;29.02;;
29236;SDS011;16266;50.866;4.398;2024-01-16T02:13:52;29.48;;;28.27;;
29236;SDS011;16266;50.866;4.398;2024-01-16T02:16:22;28.50;;;26.98;;
29236;SDS011;16266;50.866;4.398;2024-01-16T02:18:48;29.85;;;28.30;;
29236;SDS011;16266;50.866;4.398;2024-01-16T02:21:18;31.60;;;30.17;;
29236;SDS011;16266;50.866;4.398;2024-01-16T02:23:46;30.60;;;29.50;;
29236;SDS011;16266;50.866;4.398;2024-01-16T02:26:14;27.35;;;26.17;;
29236;SDS011;16266;50.866;4.398;2024-01-16T02:31:08;30.40;;;29.30;;
29236;SDS011;16266;50.866;4.398;2024-01-16T02:33:34;29.45;;;28.15;;
29236;SDS011;16266;50.866;4.398;2024-01-16T02:35:59;27.02;;;26.00;;
29236;SDS011;16266;50.866;4.398;2024-01-16T02:38:25;33.15;;;31.67;;
29236;SDS011;16266;50.866;4.398;2024-01-16T02:40:51;33.75;;;31.90;;
29236;SDS011;16266;50.866;4.398;2024-01-16T02:43:16;34.65;;;32.92;;
29236;SDS011;16266;50.866;4.398;2024-01-16T02:45:42;33.10;;;31.70;;
29236;SDS011;16266;50.866;4.398;2024-01-16T02:48:08;29.42;;;28.23;;
29236;SDS011;16266;50.866;4.398;2024-01-16T02:50:34;28.75;;;27.65;;
29236;SDS011;16266;50.866;4.398;2024-01-16T02:53:00;28.50;;;27.17;;
29236;SDS011;16266;50.866;4.398;2024-01-16T02:55:26;29.35;;;28.05;;
29236;SDS011;16266;50.866;4.398;2024-01-16T02:57:52;27.58;;;26.35;;
29236;SDS011;16266;50.866;4.398;2024-01-16T03:00:19;32.60;;;30.83;;
29236;SDS011;16266;50.866;4.398;2024-01-16T03:02:45;30.23;;;28.67;;
29236;SDS011;16266;50.866;4.398;2024-01-16T03:05:10;35.47;;;33.58;;
29236;SDS011;16266;50.866;4.398;2024-01-16T03:07:36;30.25;;;28.30;;
29236;SDS011;16266;50.866;4.398;2024-01-16T03:10:02;29.17;;;27.38;;
29236;SDS011;16266;50.866;4.398;2024-01-16T03:12:28;29.48;;;28.05;;
29236;SDS011;16266;50.866;4.398;2024-01-16T03:14:54;25.77;;;24.83;;
29236;SDS011;16266;50.866;4.398;2024-01-16T03:17:20;25.80;;;24.90;;
29236;SDS011;16266;50.866;4.398;2024-01-16T03:19:45;29.45;;;27.98;;
29236;SDS011;16266;50.866;4.398;2024-01-16T03:22:11;33.03;;;31.80;;
29236;SDS011;16266;50.866;4.398;2024-01-16T03:24:37;35.92;;;34.20;;
29236;SDS011;16266;50.866;4.398;2024-01-16T03:27:03;37.60;;;35.15;;
29236;SDS011;16266;50.866;4.398;2024-01-16T03:29:29;44.65;;;42.97;;
29236;SDS011;16266;50.866;4.398;2024-01-16T03:31:55;42.35;;;40.25;;
29236;SDS011;16266;50.866;4.398;2024-01-16T03:34:21;37.33;;;35.85;;
29236;SDS011;16266;50.866;4.398;2024-01-16T03:36:46;42.65;;;40.58;;
29236;SDS011;16266;50.866;4.398;2024-01-16T03:39:12;48.90;;;46.40;;
29236;SDS011;16266;50.866;4.398;2024-01-16T03:41:40;72.10;;;69.00;;
29236;SDS011;16266;50.866;4.398;2024-01-16T03:44:06;76.55;;;72.50;;
29236;SDS011;16266;50.866;4.398;2024-01-16T03:46:31;71.32;;;68.35;;
29236;SDS011;16266;50.866;4.398;2024-01-16T03:48:57;84.80;;;81.30;;
29236;SDS011;16266;50.866;4.398;2024-01-16T03:51:22;83.60;;;80.35;;
29236;SDS011;16266;50.866;4.398;2024-01-16T03:53:48;75.03;;;71.97;;
29236;SDS011;16266;50.866;4.398;2024-01-16T03:56:14;65.97;;;63.05;;
29236;SDS011;16266;50.866;4.398;2024-01-16T03:58:41;64.13;;;61.67;;
29236;SDS011;16266;50.866;4.398;2024-01-16T04:01:07;69.68;;;67.10;;
29236;SDS011;16266;50.866;4.398;2024-01-16T04:03:33;68.93;;;66.10;;
29236;SDS011;16266;50.866;4.398;2024-01-16T04:05:59;74.93;;;72.03;;
29236;SDS011;16266;50.866;4.398;2024-01-16T04:08:25;78.88;;;75.55;;
29236;SDS011;16266;50.866;4.398;2024-01-16T04:10:51;79.75;;;76.22;;
29236;SDS011;16266;50.866;4.398;2024-01-16T04:13:18;72.15;;;68.82;;
29236;SDS011;16266;50.866;4.398;2024-01-16T04:15:43;78.47;;;74.97;;
29236;SDS011;16266;50.866;4.398;2024-01-16T04:18:09;69.85;;;67.15;;
29236;SDS011;16266;50.866;4.398;2024-01-16T04:20:35;69.60;;;66.68;;
29236;SDS011;16266;50.866;4.398;2024-01-16T04:23:01;70.80;;;67.47;;
29236;SDS011;16266;50.866;4.398;2024-01-16T04:25:27;91.85;;;87.63;;
29236;SDS011;16266;50.866;4.398;2024-01-16T04:27:52;74.43;;;70.78;;
29236;SDS011;16266;50.866;4.398;2024-01-16T04:30:18;71.40;;;68.53;;
29236;SDS011;16266;50.866;4.398;2024-01-16T04:32:45;62.80;;;60.40;;
29236;SDS011;16266;50.866;4.398;2024-01-16T04:35:11;69.13;;;66.55;;
29236;SDS011;16266;50.866;4.398;2024-01-16T04:37:36;72.95;;;69.53;;
29236;SDS011;16266;50.866;4.398;2024-01-16T04:40:02;74.05;;;70.53;;
29236;SDS011;16266;50.866;4.398;2024-01-16T04:42:31;72.90;;;70.05;;
29236;SDS011;16266;50.866;4.398;2024-01-16T04:44:57;71.28;;;68.47;;
29236;SDS011;16266;50.866;4.398;2024-01-16T04:47:23;72.82;;;69.93;;
29236;SDS011;16266;50.866;4.398;2024-01-16T04:49:49;84.38;;;80.95;;
29236;SDS011;16266;50.866;4.398;2024-01-16T04:52:15;76.32;;;73.22;;
29236;SDS011;16266;50.866;4.398;2024-01-16T04:54:40;72.85;;;69.68;;
29236;SDS011;16266;50.866;4.398;2024-01-16T04:57:06;74.57;;;71.45;;
29236;SDS011;16266;50.866;4.398;2024-01-16T04:59:32;71.97;;;68.50;;
29236;SDS011;16266;50.866;4.398;2024-01-16T05:01:57;70.35;;;67.40;;
29236;SDS011;16266;50.866;4.398;2024-01-16T05:04:23;68.60;;;65.85;;
29236;SDS011;16266;50.866;4.398;2024-01-16T05:06:51;75.45;;;71.97;;
29236;SDS011;16266;50.866;4.398;2024-01-16T05:09:18;90.82;;;86.28;;
29236;SDS011;16266;50.866;4.398;2024-01-16T05:11:44;74.93;;;71.60;;
29236;SDS011;16266;50.866;4.398;2024-01-16T05:14:11;72.07;;;68.85;;
29236;SDS011;16266;50.866;4.398;2024-01-16T05:16:36;80.63;;;77.53;;
29236;SDS011;16266;50.866;4.398;2024-01-16T05:19:03;85.63;;;81.55;;
29236;SDS011;16266;50.866;4.398;2024-01-16T05:21:29;84.10;;;80.18;;
29236;SDS011;16266;50.866;4.398;2024-01-16T05:23:55;103.25;;;98.18;;
29236;SDS011;16266;50.866;4.398;2024-01-16T05:26:21;53.72;;;51.47;;
29236;SDS011;16266;50.866;4.398;2024-01-16T05:28:48;55.85;;;53.55;;
29236;SDS011;16266;50.866;4.398;2024-01-16T05:31:13;51.30;;;48.88;;
29236;SDS011;16266;50.866;4.398;2024-01-16T05:33:39;37.60;;;36.08;;
29236;SDS011;16266;50.866;4.398;2024-01-16T05:36:06;40.65;;;38.72;;
29236;SDS011;16266;50.866;4.398;2024-01-16T05:38:32;49.03;;;47.00;;
29236;SDS011;16266;50.866;4.398;2024-01-16T05:40:58;51.35;;;48.95;;
29236;SDS011;16266;50.866;4.398;2024-01-16T05:43:24;53.80;;;51.28;;
29236;SDS011;16266;50.866;4.398;2024-01-16T05:45:50;132.18;;;126.47;;
29236;SDS011;16266;50.866;4.398;2024-01-16T05:48:16;36.60;;;34.75;;
29236;SDS011;16266;50.866;4.398;2024-01-16T05:50:42;32.45;;;31.05;;
29236;SDS011;16266;50.866;4.398;2024-01-16T05:53:08;34.28;;;32.28;;
29236;SDS011;16266;50.866;4.398;2024-01-16T05:55:33;31.25;;;29.88;;
29236;SDS011;16266;50.866;4.398;2024-01-16T05:58:01;37.80;;;36.33;;
29236;SDS011;16266;50.866;4.398;2024-01-16T06:00:27;81.35;;;77.95;;
29236;SDS011;16266;50.866;4.398;2024-01-16T06:02:53;43.88;;;41.65;;
29236;SDS011;16266;50.866;4.398;2024-01-16T06:05:18;61.65;;;58.70;;
29236;SDS011;16266;50.866;4.398;2024-01-16T06:07:44;53.15;;;51.05;;
29236;SDS011;16266;50.866;4.398;2024-01-16T06:10:13;37.40;;;35.90;;
29236;SDS011;16266;50.866;4.398;2024-01-16T06:12:39;62.60;;;60.03;;
29236;SDS011;16266;50.866;4.398;2024-01-16T06:15:06;101.88;;;97.75;;
29236;SDS011;16266;50.866;4.398;2024-01-16T06:17:31;70.47;;;67.32;;
29236;SDS011;16266;50.866;4.398;2024-01-16T06:19:57;74.75;;;71.07;;
29236;SDS011;16266;50.866;4.398;2024-01-16T06:22:23;60.88;;;58.33;;
29236;SDS011;16266;50.866;4.398;2024-01-16T06:24:48;64.30;;;61.58;;
29236;SDS011;16266;50.866;4.398;2024-01-16T06:27:14;56.75;;;54.22;;
29236;SDS011;16266;50.866;4.398;2024-01-16T06:29:44;59.75;;;57.45;;
29236;SDS011;16266;50.866;4.398;2024-01-16T06:32:10;51.85;;;49.28;;
29236;SDS011;16266;50.866;4.398;2024-01-16T06:34:36;47.95;;;44.90;;
29236;SDS011;16266;50.866;4.398;2024-01-16T06:37:02;38.40;;;36.10;;
29236;SDS011;16266;50.866;4.398;2024-01-16T06:39:27;32.33;;;30.63;;
29236;SDS011;16266;50.866;4.398;2024-01-16T06:41:53;43.80;;;39.92;;
29236;SDS011;16266;50.866;4.398;2024-01-16T06:44:19;42.72;;;41.13;;
29236;SDS011;16266;50.866;4.398;2024-01-16T06:46:44;50.47;;;48.03;;
29236;SDS011;16266;50.866;4.398;2024-01-16T06:49:10;61.55;;;58.95;;
29236;SDS011;16266;50.866;4.398;2024-01-16T06:51:36;93.00;;;87.88;;
29236;SDS011;16266;50.866;4.398;2024-01-16T06:54:01;167.25;;;159.18;;
29236;SDS011;16266;50.866;4.398;2024-01-16T06:56:28;502.67;;;476.40;;
29236;SDS011;16266;50.866;4.398;2024-01-16T06:58:54;108.15;;;101.70;;
29236;SDS011;16266;50.866;4.398;2024-01-16T07:01:20;738.75;;;691.45;;
29236;SDS011;16266;50.866;4.398;2024-01-16T07:03:45;127.10;;;121.50;;
29236;SDS011;16266;50.866;4.398;2024-01-16T07:06:11;640.58;;;606.13;;
29236;SDS011;16266;50.866;4.398;2024-01-16T07:08:37;81.82;;;78.13;;
29236;SDS011;16266;50.866;4.398;2024-01-16T07:11:03;265.52;;;253.98;;
29236;SDS011;16266;50.866;4.398;2024-01-16T07:13:32;761.63;;;711.28;;
29236;SDS011;16266;50.866;4.398;2024-01-16T07:15:59;105.75;;;98.80;;
29236;SDS011;16266;50.866;4.398;2024-01-16T07:18:24;97.60;;;93.30;;
29236;SDS011;16266;50.866;4.398;2024-01-16T07:20:52;67.97;;;64.38;;
29236;SDS011;16266;50.866;4.398;2024-01-16T07:23:18;109.63;;;105.13;;
29236;SDS011;16266;50.866;4.398;2024-01-16T07:25:43;127.03;;;118.45;;
29236;SDS011;16266;50.866;4.398;2024-01-16T07:28:09;70.82;;;67.93;;
29236;SDS011;16266;50.866;4.398;2024-01-16T07:30:34;100.57;;;95.28;;
29236;SDS011;16266;50.866;4.398;2024-01-16T07:33:01;104.30;;;97.47;;
29236;SDS011;16266;50.866;4.398;2024-01-16T07:35:28;97.88;;;93.13;;
29236;SDS011;16266;50.866;4.398;2024-01-16T07:37:53;91.40;;;87.05;;
29236;SDS011;16266;50.866;4.398;2024-01-16T07:40:19;91.63;;;87.63;;
29236;SDS011;16266;50.866;4.398;2024-01-16T07:42:45;410.55;;;389.77;;
29236;SDS011;16266;50.866;4.398;2024-01-16T07:45:11;89.70;;;85.40;;
29236;SDS011;16266;50.866;4.398;2024-01-16T07:47:37;93.88;;;89.32;;
29236;SDS011;16266;50.866;4.398;2024-01-16T07:50:02;90.78;;;86.45;;
29236;SDS011;16266;50.866;4.398;2024-01-16T07:52:28;86.97;;;82.70;;
29236;SDS011;16266;50.866;4.398;2024-01-16T07:54:54;77.07;;;73.55;;
29236;SDS011;16266;50.866;4.398;2024-01-16T07:57:20;86.97;;;83.32;;
29236;SDS011;16266;50.866;4.398;2024-01-16T07:59:46;76.70;;;73.30;;
29236;SDS011;16266;50.866;4.398;2024-01-16T08:02:12;68.07;;;64.95;;
29236;SDS011;16266;50.866;4.398;2024-01-16T08:04:38;303.40;;;285.80;;
29236;SDS011;16266;50.866;4.398;2024-01-16T08:07:04;720.13;;;670.42;;
29236;SDS011;16266;50.866;4.398;2024-01-16T08:09:30;994.60;;;917.15;;
29236;SDS011;16266;50.866;4.398;2024-01-16T08:11:55;70.13;;;67.00;;
29236;SDS011;16266;50.866;4.398;2024-01-16T08:14:21;62.25;;;59.72;;
29236;SDS011;16266;50.866;4.398;2024-01-16T08:16:47;54.42;;;52.13;;
29236;SDS011;16266;50.866;4.398;2024-01-16T08:19:13;42.38;;;40.55;;
29236;SDS011;16266;50.866;4.398;2024-01-16T08:21:39;31.85;;;30.55;;
29236;SDS011;16266;50.866;4.398;2024-01-16T08:24:05;26.67;;;25.48;;
29236;SDS011;16266;50.866;4.398;2024-01-16T08:26:30;32.10;;;30.52;;
29236;SDS011;16266;50.866;4.398;2024-01-16T08:28:57;36.30;;;34.63;;
29236;SDS011;16266;50.866;4.398;2024-01-16T08:31:23;41.42;;;39.72;;
29236;SDS011;16266;50.866;4.398;2024-01-16T08:33:48;55.85;;;52.65;;
29236;SDS011;16266;50.866;4.398;2024-01-16T08:36:14;48.05;;;46.05;;
29236;SDS011;16266;50.866;4.398;2024-01-16T08:38:40;48.33;;;45.95;;
29236;SDS011;16266;50.866;4.398;2024-01-16T08:41:06;53.30;;;50.28;;
29236;SDS011;16266;50.866;4.398;2024-01-16T08:43:34;53.50;;;50.97;;
29236;SDS011;16266;50.866;4.398;2024-01-16T08:46:00;50.58;;;48.33;;
29236;SDS011;16266;50.866;4.398;2024-01-16T08:48:26;48.58;;;46.63;;
29236;SDS011;16266;50.866;4.398;2024-01-16T08:50:52;46.50;;;44.60;;
29236;SDS011;16266;50.866;4.398;2024-01-16T08:53:19;52.10;;;49.97;;
29236;SDS011;16266;50.866;4.398;2024-01-16T08:55:45;55.58;;;52.75;;
29236;SDS011;16266;50.866;4.398;2024-01-16T08:58:10;47.60;;;45.60;;
29236;SDS011;16266;50.866;4.398;2024-01-16T09:00:36;40.03;;;38.35;;
29236;SDS011;16266;50.866;4.398;2024-01-16T09:03:03;38.00;;;36.10;;
29236;SDS011;16266;50.866;4.398;2024-01-16T09:05:29;33.83;;;32.42;;
29236;SDS011;16266;50.866;4.398;2024-01-16T09:07:55;23.30;;;22.35;;
29236;SDS011;16266;50.866;4.398;2024-01-16T09:10:20;22.52;;;21.52;;
29236;SDS011;16266;50.866;4.398;2024-01-16T09:12:46;23.90;;;22.67;;
29236;SDS011;16266;50.866;4.398;2024-01-16T09:15:12;30.58;;;28.88;;
29236;SDS011;16266;50.866;4.398;2024-01-16T09:17:38;26.15;;;24.83;;
29236;SDS011;16266;50.866;4.398;2024-01-16T09:20:05;25.38;;;24.13;;
29236;SDS011;16266;50.866;4.398;2024-01-16T09:22:32;22.63;;;21.73;;
29236;SDS011;16266;50.866;4.398;2024-01-16T09:24:57;25.27;;;23.65;;
29236;SDS011;16266;50.866;4.398;2024-01-16T09:27:23;22.83;;;21.58;;
29236;SDS011;16266;50.866;4.398;2024-01-16T09:29:49;25.42;;;23.98;;
29236;SDS011;16266;50.866;4.398;2024-01-16T09:32:14;25.35;;;24.13;;
29236;SDS011;16266;50.866;4.398;2024-01-16T09:34:40;26.95;;;25.58;;
29236;SDS011;16266;50.866;4.398;2024-01-16T09:37:05;25.20;;;24.10;;
29236;SDS011;16266;50.866;4.398;2024-01-16T09:39:32;25.92;;;24.77;;
29236;SDS011;16266;50.866;4.398;2024-01-16T09:41:59;29.23;;;27.73;;
29236;SDS011;16266;50.866;4.398;2024-01-16T09:44:28;27.23;;;26.05;;
29236;SDS011;16266;50.866;4.398;2024-01-16T09:46:54;26.92;;;25.77;;
29236;SDS011;16266;50.866;4.398;2024-01-16T09:49:21;21.95;;;21.08;;
29236;SDS011;16266;50.866;4.398;2024-01-16T09:51:48;20.83;;;19.45;;
29236;SDS011;16266;50.866;4.398;2024-01-16T09:54:14;19.30;;;18.50;;
29236;SDS011;16266;50.866;4.398;2024-01-16T09:56:43;21.33;;;20.63;;
29236;SDS011;16266;50.866;4.398;2024-01-16T09:59:12;19.85;;;18.92;;
29236;SDS011;16266;50.866;4.398;2024-01-16T10:01:41;26.88;;;25.77;;
29236;SDS011;16266;50.866;4.398;2024-01-16T10:04:08;36.78;;;35.25;;
29236;SDS011;16266;50.866;4.398;2024-01-16T10:06:34;27.30;;;25.85;;
29236;SDS011;16266;50.866;4.398;2024-01-16T10:09:02;24.05;;;23.05;;
29236;SDS011;16266;50.866;4.398;2024-01-16T10:11:29;19.92;;;18.48;;
29236;SDS011;16266;50.866;4.398;2024-01-16T10:13:57;30.73;;;23.92;;
29236;SDS011;16266;50.866;4.398;2024-01-16T10:16:24;25.67;;;24.17;;
29236;SDS011;16266;50.866;4.398;2024-01-16T10:19:24;99.20;;;43.28;;
29236;SDS011;16266;50.866;4.398;2024-01-16T10:22:04;25.95;;;23.35;;
29236;SDS011;16266;50.866;4.398;2024-01-16T10:24:31;22.75;;;21.13;;
29236;SDS011;16266;50.866;4.398;2024-01-16T10:27:00;44.70;;;39.47;;
29236;SDS011;16266;50.866;4.398;2024-01-16T10:29:29;23.85;;;22.40;;
29236;SDS011;16266;50.866;4.398;2024-01-16T10:31:58;87.90;;;83.35;;
29236;SDS011;16266;50.866;4.398;2024-01-16T10:34:24;51.20;;;47.60;;
29236;SDS011;16266;50.866;4.398;2024-01-16T10:36:51;19.73;;;18.85;;
29236;SDS011;16266;50.866;4.398;2024-01-16T10:39:23;40.17;;;37.25;;
29236;SDS011;16266;50.866;4.398;2024-01-16T10:41:56;53.72;;;50.55;;
29236;SDS011;16266;50.866;4.398;2024-01-16T10:44:22;28.23;;;26.92;;
29236;SDS011;16266;50.866;4.398;2024-01-16T10:46:48;24.67;;;23.70;;
29236;SDS011;16266;50.866;4.398;2024-01-16T10:49:14;19.85;;;17.90;;
29236;SDS011;16266;50.866;4.398;2024-01-16T10:51:41;22.70;;;20.70;;
29236;SDS011;16266;50.866;4.398;2024-01-16T10:54:10;16.95;;;16.33;;
29236;SDS011;16266;50.866;4.398;2024-01-16T10:56:44;55.88;;;53.47;;
29236;SDS011;16266;50.866;4.398;2024-01-16T11:01:59;52.03;;;49.47;;
29236;SDS011;16266;50.866;4.398;2024-01-16T11:04:28;16.65;;;16.02;;
29236;SDS011;16266;50.866;4.398;2024-01-16T11:06:55;18.05;;;16.30;;
29236;SDS011;16266;50.866;4.398;2024-01-16T11:09:21;26.73;;;25.27;;
29236;SDS011;16266;50.866;4.398;2024-01-16T11:11:46;19.00;;;17.65;;
29236;SDS011;16266;50.866;4.398;2024-01-16T11:14:15;18.70;;;17.27;;
29236;SDS011;16266;50.866;4.398;2024-01-16T11:16:41;15.95;;;15.07;;
29236;SDS011;16266;50.866;4.398;2024-01-16T11:19:08;18.95;;;17.85;;
29236;SDS011;16266;50.866;4.398;2024-01-16T11:21:35;16.33;;;15.55;;
29236;SDS011;16266;50.866;4.398;2024-01-16T11:24:02;15.73;;;15.02;;
29236;SDS011;16266;50.866;4.398;2024-01-16T11:26:31;17.25;;;16.45;;
29236;SDS011;16266;50.866;4.398;2024-01-16T11:31:51;19.10;;;17.30;;
29236;SDS011;16266;50.866;4.398;2024-01-16T11:34:51;17.13;;;15.93;;
29236;SDS011;16266;50.866;4.398;2024-01-16T11:37:09;16.33;;;15.30;;
29236;SDS011;16266;50.866;4.398;2024-01-16T11:39:39;14.43;;;13.55;;
29236;SDS011;16266;50.866;4.398;2024-01-16T11:42:05;16.15;;;15.02;;
29236;SDS011;16266;50.866;4.398;2024-01-16T11:44:46;21.17;;;15.65;;
29236;SDS011;16266;50.866;4.398;2024-01-16T11:47:21;14.70;;;14.00;;
29236;SDS011;16266;50.866;4.398;2024-01-16T11:49:50;15.60;;;14.80;;
29236;SDS011;16266;50.866;4.398;2024-01-16T11:55:28;14.68;;;14.07;;
29236;SDS011;16266;50.866;4.398;2024-01-16T12:00:30;13.93;;;13.25;;
29236;SDS011;16266;50.866;4.398;2024-01-16T12:02:58;16.05;;;15.20;;
29236;SDS011;16266;50.866;4.398;2024-01-16T12:05:28;15.75;;;15.15;;
29236;SDS011;16266;50.866;4.398;2024-01-16T12:07:54;18.65;;;15.02;;
29236;SDS011;16266;50.866;4.398;2024-01-16T12:10:21;14.88;;;14.18;;
29236;SDS011;16266;50.866;4.398;2024-01-16T12:12:48;16.15;;;15.25;;
29236;SDS011;16266;50.866;4.398;2024-01-16T12:15:14;14.75;;;14.10;;
29236;SDS011;16266;50.866;4.398;2024-01-16T12:17:57;15.15;;;14.45;;
29236;SDS011;16266;50.866;4.398;2024-01-16T12:20:24;14.40;;;13.70;;
29236;SDS011;16266;50.866;4.398;2024-01-16T12:22:55;15.52;;;14.82;;
29236;SDS011;16266;50.866;4.398;2024-01-16T12:25:23;17.73;;;16.35;;
29236;SDS011;16266;50.866;4.398;2024-01-16T12:27:55;15.32;;;14.63;;
29236;SDS011;16266;50.866;4.398;2024-01-16T12:30:32;16.42;;;15.52;;
29236;SDS011;16266;50.866;4.398;2024-01-16T12:33:20;16.38;;;15.45;;
29236;SDS011;16266;50.866;4.398;2024-01-16T12:35:47;16.42;;;15.15;;
29236;SDS011;16266;50.866;4.398;2024-01-16T12:38:13;16.80;;;15.82;;
29236;SDS011;16266;50.866;4.398;2024-01-16T12:40:49;15.80;;;15.10;;
29236;SDS011;16266;50.866;4.398;2024-01-16T12:43:17;13.27;;;12.70;;
29236;SDS011;16266;50.866;4.398;2024-01-16T12:45:43;17.42;;;15.40;;
29236;SDS011;16266;50.866;4.398;2024-01-16T12:48:10;15.80;;;14.90;;
29236;SDS011;16266;50.866;4.398;2024-01-16T12:50:36;15.32;;;14.32;;
29236;SDS011;16266;50.866;4.398;2024-01-16T12:53:03;16.25;;;15.45;;
29236;SDS011;16266;50.866;4.398;2024-01-16T12:55:33;14.13;;;13.52;;
29236;SDS011;16266;50.866;4.398;2024-01-16T13:00:45;15.20;;;14.48;;
29236;SDS011;16266;50.866;4.398;2024-01-16T13:03:16;14.90;;;14.23;;
29236;SDS011;16266;50.866;4.398;2024-01-16T13:05:45;14.25;;;13.73;;
29236;SDS011;16266;50.866;4.398;2024-01-16T13:08:19;14.55;;;13.52;;
29236;SDS011;16266;50.866;4.398;2024-01-16T13:11:01;14.43;;;13.82;;
29236;SDS011;16266;50.866;4.398;2024-01-16T13:13:36;15.98;;;15.18;;
29236;SDS011;16266;50.866;4.398;2024-01-16T13:16:03;16.02;;;15.23;;
29236;SDS011;16266;50.866;4.398;2024-01-16T13:18:31;15.75;;;15.00;;
29236;SDS011;16266;50.866;4.398;2024-01-16T13:20:57;18.30;;;17.27;;
29236;SDS011;16266;50.866;4.398;2024-01-16T13:23:24;17.85;;;16.67;;
29236;SDS011;16266;50.866;4.398;2024-01-16T13:25:51;16.60;;;15.80;;
29236;SDS011;16266;50.866;4.398;2024-01-16T13:28:17;14.82;;;14.13;;
29236;SDS011;16266;50.866;4.398;2024-01-16T13:30:45;15.25;;;14.55;;
29236;SDS011;16266;50.866;4.398;2024-01-16T13:33:11;17.25;;;15.95;;
29236;SDS011;16266;50.866;4.398;2024-01-16T13:35:39;17.30;;;16.55;;
29236;SDS011;16266;50.866;4.398;2024-01-16T13:38:09;16.55;;;15.52;;
29236;SDS011;16266;50.866;4.398;2024-01-16T13:40:35;16.48;;;15.25;;
29236;SDS011;16266;50.866;4.398;2024-01-16T13:45:34;15.95;;;14.68;;
29236;SDS011;16266;50.866;4.398;2024-01-16T13:48:01;15.98;;;15.05;;
29236;SDS011;16266;50.866;4.398;2024-01-16T13:50:27;17.20;;;16.08;;
29236;SDS011;16266;50.866;4.398;2024-01-16T13:52:52;17.27;;;15.82;;
29236;SDS011;16266;50.866;4.398;2024-01-16T13:55:21;14.95;;;14.10;;
29236;SDS011;16266;50.866;4.398;2024-01-16T13:57:47;13.38;;;12.88;;
29236;SDS011;16266;50.866;4.398;2024-01-16T14:00:13;14.45;;;13.95;;
29236;SDS011;16266;50.866;4.398;2024-01-16T14:02:41;15.60;;;14.82;;
29236;SDS011;16266;50.866;4.398;2024-01-16T14:05:11;13.15;;;12.65;;
29236;SDS011;16266;50.866;4.398;2024-01-16T14:07:40;18.15;;;17.05;;
29236;SDS011;16266;50.866;4.398;2024-01-16T14:10:07;15.40;;;14.55;;
29236;SDS011;16266;50.866;4.398;2024-01-16T14:15:08;16.20;;;14.55;;
29236;SDS011;16266;50.866;4.398;2024-01-16T14:17:41;14.73;;;13.95;;
29236;SDS011;16266;50.866;4.398;2024-01-16T14:20:09;16.65;;;15.80;;
29236;SDS011;16266;50.866;4.398;2024-01-16T14:22:36;15.88;;;14.75;;
29236;SDS011;16266;50.866;4.398;2024-01-16T14:25:08;15.43;;;14.27;;
29236;SDS011;16266;50.866;4.398;2024-01-16T14:27:38;15.68;;;14.55;;
29236;SDS011;16266;50.866;4.398;2024-01-16T14:30:07;13.43;;;12.63;;
29236;SDS011;16266;50.866;4.398;2024-01-16T14:32:41;16.30;;;14.77;;
29236;SDS011;16266;50.866;4.398;2024-01-16T14:35:08;15.93;;;14.98;;
29236;SDS011;16266;50.866;4.398;2024-01-16T14:37:35;14.23;;;13.45;;